Fish Creek, New York
Current Conditions -  °F | °C
As of 12:53 AM on Tuesday 21 Oct 2014 (Local Time) from KRME Reporting Station
Light Rain Light Rain  
Wind Chill: 45°   Ceiling: 7000
Heat Index: 47°   Visibility: 10mi
Dew Point: 43°   Wind: 5mph
Humidity: 86%   Direction: 150°SSE
Pressure: 29.9"   Gusts: NA
Location:  43.5832°N, 75.5707°W
Report Text: KRME 210453Z AUTO 15004KT 10SM -RA FEW050 OVC070 08/06 A2990 RMK AO2 SLP126 P0001 T00830061 401280000
Loading
Personal Weather Stations






























Interactive Weather Map
Tropical Storm Tracking
New forecast layout! Learn more

10-Day Weather Forecast

Advertisements
Track Severe Weather on mobile